CheckWX is a tool to help pilots better visualize weather data.  It is not intended as a substitute for an official pre-flight weather briefing.

11:08:14 UTC

KBUU METAR
Burlington Municipal Airport
Burlington, Wisconsin, USA
Current

33 mins ago

KBUU 261035Z AUTO 36012G17KT 10SM OVC020 M03/M07 A3009 RMK AO2 T10331067
Observed
Feb-26 @ 10:35 UTC
Wind
  • 360° at 12 KTS
  • Gusting to 17 KTS
Visibility
10 SM
Flight Rules
MVFR
Cloud Levels
  • Overcast at 2,000' AGL
Temperature
-3°C / 27°F
Dewpoint
-7°C / 19°F
Humidity
74%
Altimeter
30.09" Hg
Pressure
1018.92 hPa
Previous

53 mins ago

KBUU 261015Z AUTO 36013G16KT 10SM OVC018 M03/M06 A3009 RMK AO2 T10301063
Observed
Feb-26 @ 10:15 UTC
Wind
  • 360° at 13 KTS
  • Gusting to 16 KTS
Visibility
10 SM
Flight Rules
MVFR
Cloud Levels
  • Overcast at 1,800' AGL
Temperature
-3°C / 27°F
Dewpoint
-6°C / 21°F
Humidity
80%
Altimeter
30.09" Hg
Pressure
1018.92 hPa
Previous

2 hours ago

KBUU 260935Z AUTO 36013G16KT 10SM OVC018 M03/M06 A3009 RMK AO2 T10271061
Observed
Feb-26 @ 09:35 UTC
Wind
  • 360° at 13 KTS
  • Gusting to 16 KTS
Visibility
10 SM
Flight Rules
MVFR
Cloud Levels
  • Overcast at 1,800' AGL
Temperature
-3°C / 27°F
Dewpoint
-6°C / 21°F
Humidity
80%
Altimeter
30.09" Hg
Pressure
1018.92 hPa